Terminal Aerodrome Forecast
Issued by NWS Boston, MA

Home | Current Version | Previous Version | Text Only | Print | Product List | Glossary On
Versions: 1 2 3 4 5 6 7 8 9 10 11 12 13 14 15 16 17 18 19 20 21 22 23 24 25 26 27 28 29 30 31 32 33 34 35 36 37 38 39
000
FTUS41 KBOX 271729
TAFORH
TAF
KORH 271729Z 2718/2818 VRB03KT P6SM OVC015
     FM280000 17005KT 5SM BR OVC010
     FM280700 19006KT 1/2SM FG BKN003
     FM281000 21006KT 1/2SM FG VCSH BKN003
     FM281400 26006KT P6SM BKN010
     FM281600 27010KT P6SM SCT060=

USA.gov is the U.S. government's official web portal to all federal, state and local government web resources and services.